Skip Navigation Links
NOAA logo - Click to go to the NOAA homepage
NOAA's National Weather Service
Alaska Aviation Weather Unit
  NWS logo - Click to go to the NWS homepage
Left Navbar Graphic     09 AKDT = 17 GMT

   
NOAA is celebrating 200 years of science, service, and stewardship. Visit the NOAA 200th celebration Web site to learn more.
USA.gov is the U.S. Government's official Web portal to all Federal, state and local government Web resources and services.
Facebook
NWS on Facebook

Important Change Regarding the AAWU Web Presence

 

Over the last several months, the AAWU has been working to navigate its webpages to a nationally supported server. Security, as well as other needs, have necessitated the change.  In the process, we have made an effort to enhance the functionality of our website, as well as some of our products. As of June 20, 2017, aawu.arh.noaa.gov will be discontinued. The new AAWU web address is weather.gov/aawu. It is now live and will run in-parallel with the old site until it is discontinued. Please send any feedback or questions regarding the new webpages to nws.ar.aawu.webauthors@noaa.gov.  Thank you for your patience during this time of transition.
AAWU Home :: Display TAF Add Bookmark
TAF PAFA 271124Z 2712/2818 VRB06KT P6SM SCT050 BKN100 BKN200=
METAR PAFA 271153Z 05004KT 10SM SCT085 SCT100 BKN140 02/M01 A3003=

METAR PAFA 271253Z 01004KT 10SM SCT085 BKN120 BKN200 03/M01 A3003=

METAR PAFA 271353Z 12006KT 10SM SCT085 BKN110 BKN200 03/M01 A3004=

METAR PAFA 271453Z 36003KT 10SM SCT070 BKN100 BKN200 04/M01 A3005=

METAR PAFA 271553Z 00000KT 10SM SCT075 BKN090 BKN150 06/00 A3004=

METAR PAFA 271653Z 04003KT 10SM BKN085 BKN150 07/M01 A3005=


NOAA's National Weather Service
Alaska Aviation Weather Unit
6930 Sand Lake Road
Anchorage, AK 99502-1845
Disclaimer
Credits
Glossary
Privacy Policy
About Us
Career Opportunities
Contact AAWU Internet Services Site last modified: April, 17th 2012